Gimlet, Kentucky
Current Conditions -  °F | °C
As of 5:50 AM on Sunday 23 Nov 2014 (Local Time) from KSYM Reporting Station
Overcast Overcast  
Wind Chill: 52°   Ceiling: 9500
Heat Index: 52°   Visibility: 10mi
Dew Point: 34°   Wind: 8mph
Humidity: 50%   Direction: 150°SSE
Pressure: 30.06"   Gusts: 14mph
Location:  38.3543°N, 83.1837°W
Report Text: KSYM 231050Z AUTO 15007G12KT 10SM FEW050 OVC095 11/01 A3006 RMK AO2
Loading
Personal Weather Stations






























Interactive Weather Map New forecast layout! Learn more

10-Day Weather Forecast

Advertisements
Track Severe Weather on mobile